sensor_id;sensor_type;location;lat;lon;timestamp;P1;durP1;ratioP1;P2;durP2;ratioP2
14520;SDS011;7347;50.844;4.490;2023-06-05T07:27:55;4.68;;;2.55;;
14520;SDS011;7347;50.844;4.490;2023-06-05T07:30:24;5.60;;;2.30;;
14520;SDS011;7347;50.844;4.490;2023-06-05T07:32:51;5.75;;;2.50;;
14520;SDS011;7347;50.844;4.490;2023-06-05T07:35:18;4.93;;;2.60;;
14520;SDS011;7347;50.844;4.490;2023-06-05T07:37:45;4.07;;;2.42;;
14520;SDS011;7347;50.844;4.490;2023-06-05T07:40:13;5.18;;;2.47;;
14520;SDS011;7347;50.844;4.490;2023-06-05T07:42:40;5.43;;;2.42;;
14520;SDS011;7347;50.844;4.490;2023-06-05T07:45:08;5.40;;;2.95;;
14520;SDS011;7347;50.844;4.490;2023-06-05T07:47:36;4.55;;;2.85;;
14520;SDS011;7347;50.844;4.490;2023-06-05T07:50:03;5.30;;;2.55;;
14520;SDS011;7347;50.844;4.490;2023-06-05T07:52:31;5.78;;;2.78;;
14520;SDS011;7347;50.844;4.490;2023-06-05T07:54:59;4.70;;;2.92;;
14520;SDS011;7347;50.844;4.490;2023-06-05T07:57:25;6.75;;;3.20;;
14520;SDS011;7347;50.844;4.490;2023-06-05T07:59:53;5.35;;;2.67;;
14520;SDS011;7347;50.844;4.490;2023-06-05T08:02:22;5.68;;;2.80;;
14520;SDS011;7347;50.844;4.490;2023-06-05T08:04:49;4.53;;;2.80;;
14520;SDS011;7347;50.844;4.490;2023-06-05T08:07:16;4.35;;;2.78;;
14520;SDS011;7347;50.844;4.490;2023-06-05T08:09:42;4.20;;;3.00;;
14520;SDS011;7347;50.844;4.490;2023-06-05T08:12:09;2.85;;;2.22;;
14520;SDS011;7347;50.844;4.490;2023-06-05T08:14:36;5.15;;;3.00;;
14520;SDS011;7347;50.844;4.490;2023-06-05T08:17:03;7.38;;;2.80;;
14520;SDS011;7347;50.844;4.490;2023-06-05T08:19:32;4.10;;;2.92;;
14520;SDS011;7347;50.844;4.490;2023-06-05T08:21:58;4.63;;;2.60;;
14520;SDS011;7347;50.844;4.490;2023-06-05T08:24:26;4.50;;;2.70;;
14520;SDS011;7347;50.844;4.490;2023-06-05T08:26:54;4.35;;;2.70;;
14520;SDS011;7347;50.844;4.490;2023-06-05T08:29:20;4.68;;;2.47;;
14520;SDS011;7347;50.844;4.490;2023-06-05T08:31:47;4.50;;;2.72;;
14520;SDS011;7347;50.844;4.490;2023-06-05T08:34:14;6.40;;;2.90;;
14520;SDS011;7347;50.844;4.490;2023-06-05T08:36:42;5.00;;;2.60;;
14520;SDS011;7347;50.844;4.490;2023-06-05T08:39:09;4.72;;;2.97;;
14520;SDS011;7347;50.844;4.490;2023-06-05T08:41:37;5.85;;;3.13;;
14520;SDS011;7347;50.844;4.490;2023-06-05T08:44:05;6.55;;;3.22;;
14520;SDS011;7347;50.844;4.490;2023-06-05T08:46:31;5.35;;;2.72;;
14520;SDS011;7347;50.844;4.490;2023-06-05T08:49:07;5.38;;;3.10;;
14520;SDS011;7347;50.844;4.490;2023-06-05T08:51:37;4.18;;;2.70;;
14520;SDS011;7347;50.844;4.490;2023-06-05T08:54:07;6.05;;;3.00;;
14520;SDS011;7347;50.844;4.490;2023-06-05T08:56:37;5.28;;;3.22;;
14520;SDS011;7347;50.844;4.490;2023-06-05T08:59:05;4.55;;;2.80;;
14520;SDS011;7347;50.844;4.490;2023-06-05T09:01:32;6.35;;;3.20;;
14520;SDS011;7347;50.844;4.490;2023-06-05T09:04:00;5.15;;;2.97;;
14520;SDS011;7347;50.844;4.490;2023-06-05T09:06:27;5.20;;;3.20;;
14520;SDS011;7347;50.844;4.490;2023-06-05T09:08:58;3.97;;;3.13;;
14520;SDS011;7347;50.844;4.490;2023-06-05T09:11:28;4.97;;;3.00;;
14520;SDS011;7347;50.844;4.490;2023-06-05T09:13:56;5.35;;;3.42;;
14520;SDS011;7347;50.844;4.490;2023-06-05T09:16:31;4.22;;;3.00;;
14520;SDS011;7347;50.844;4.490;2023-06-05T09:18:59;6.22;;;3.05;;
14520;SDS011;7347;50.844;4.490;2023-06-05T09:21:27;5.32;;;3.10;;
14520;SDS011;7347;50.844;4.490;2023-06-05T09:24:10;5.80;;;2.97;;
14520;SDS011;7347;50.844;4.490;2023-06-05T09:26:53;6.07;;;3.40;;
14520;SDS011;7347;50.844;4.490;2023-06-05T09:29:23;6.10;;;3.22;;
14520;SDS011;7347;50.844;4.490;2023-06-05T09:31:52;5.15;;;3.35;;
14520;SDS011;7347;50.844;4.490;2023-06-05T09:34:20;5.35;;;3.33;;
14520;SDS011;7347;50.844;4.490;2023-06-05T09:36:50;5.65;;;3.20;;
14520;SDS011;7347;50.844;4.490;2023-06-05T09:39:20;5.05;;;2.90;;
14520;SDS011;7347;50.844;4.490;2023-06-05T09:41:47;4.35;;;3.00;;
14520;SDS011;7347;50.844;4.490;2023-06-05T09:44:17;5.15;;;2.90;;
14520;SDS011;7347;50.844;4.490;2023-06-05T09:46:51;3.13;;;2.60;;
14520;SDS011;7347;50.844;4.490;2023-06-05T09:49:19;5.70;;;3.60;;
14520;SDS011;7347;50.844;4.490;2023-06-05T09:51:47;4.30;;;2.63;;
14520;SDS011;7347;50.844;4.490;2023-06-05T09:54:14;5.07;;;2.70;;
14520;SDS011;7347;50.844;4.490;2023-06-05T09:56:42;4.72;;;3.33;;
14520;SDS011;7347;50.844;4.490;2023-06-05T09:59:13;5.00;;;3.00;;
14520;SDS011;7347;50.844;4.490;2023-06-05T10:01:49;4.10;;;2.58;;
14520;SDS011;7347;50.844;4.490;2023-06-05T10:04:19;7.45;;;3.50;;
14520;SDS011;7347;50.844;4.490;2023-06-05T10:06:48;5.68;;;2.85;;
14520;SDS011;7347;50.844;4.490;2023-06-05T10:09:16;6.85;;;3.00;;
14520;SDS011;7347;50.844;4.490;2023-06-05T10:11:46;5.60;;;3.20;;
14520;SDS011;7347;50.844;4.490;2023-06-05T10:14:14;5.43;;;2.90;;
14520;SDS011;7347;50.844;4.490;2023-06-05T10:16:43;3.58;;;2.38;;
14520;SDS011;7347;50.844;4.490;2023-06-05T10:19:11;4.50;;;2.40;;
14520;SDS011;7347;50.844;4.490;2023-06-05T10:21:39;5.10;;;2.70;;
14520;SDS011;7347;50.844;4.490;2023-06-05T10:24:10;5.13;;;2.70;;
14520;SDS011;7347;50.844;4.490;2023-06-05T10:26:45;5.63;;;3.03;;
14520;SDS011;7347;50.844;4.490;2023-06-05T10:29:39;3.95;;;2.53;;
14520;SDS011;7347;50.844;4.490;2023-06-05T10:32:29;5.15;;;3.08;;
14520;SDS011;7347;50.844;4.490;2023-06-05T10:35:06;4.38;;;2.47;;
14520;SDS011;7347;50.844;4.490;2023-06-05T10:37:45;4.28;;;2.85;;
14520;SDS011;7347;50.844;4.490;2023-06-05T10:40:22;6.22;;;2.60;;
14520;SDS011;7347;50.844;4.490;2023-06-05T10:42:51;3.70;;;2.47;;
14520;SDS011;7347;50.844;4.490;2023-06-05T10:45:29;5.03;;;2.95;;
14520;SDS011;7347;50.844;4.490;2023-06-05T10:47:58;5.72;;;2.08;;
14520;SDS011;7347;50.844;4.490;2023-06-05T10:50:28;3.05;;;1.83;;
14520;SDS011;7347;50.844;4.490;2023-06-05T10:52:57;3.60;;;2.10;;
14520;SDS011;7347;50.844;4.490;2023-06-05T10:55:24;2.80;;;1.88;;
14520;SDS011;7347;50.844;4.490;2023-06-05T10:58:02;7.30;;;2.53;;
14520;SDS011;7347;50.844;4.490;2023-06-05T11:00:34;5.22;;;2.20;;
14520;SDS011;7347;50.844;4.490;2023-06-05T11:03:03;5.68;;;2.47;;
14520;SDS011;7347;50.844;4.490;2023-06-05T11:05:32;4.70;;;2.08;;
14520;SDS011;7347;50.844;4.490;2023-06-05T11:08:09;3.50;;;2.30;;
14520;SDS011;7347;50.844;4.490;2023-06-05T11:16:30;3.25;;;2.20;;
14520;SDS011;7347;50.844;4.490;2023-06-05T11:22:07;2.95;;;1.92;;
14520;SDS011;7347;50.844;4.490;2023-06-05T11:24:36;6.07;;;1.58;;
14520;SDS011;7347;50.844;4.490;2023-06-05T11:27:04;6.97;;;2.20;;
14520;SDS011;7347;50.844;4.490;2023-06-05T11:29:34;5.10;;;2.78;;
14520;SDS011;7347;50.844;4.490;2023-06-05T11:32:10;2.53;;;1.60;;
14520;SDS011;7347;50.844;4.490;2023-06-05T11:34:39;3.05;;;1.70;;
14520;SDS011;7347;50.844;4.490;2023-06-05T11:37:16;2.40;;;1.67;;
14520;SDS011;7347;50.844;4.490;2023-06-05T11:39:44;4.70;;;1.90;;
14520;SDS011;7347;50.844;4.490;2023-06-05T11:42:11;7.30;;;2.00;;
14520;SDS011;7347;50.844;4.490;2023-06-05T11:44:37;4.05;;;2.47;;
14520;SDS011;7347;50.844;4.490;2023-06-05T11:47:05;4.35;;;1.85;;
14520;SDS011;7347;50.844;4.490;2023-06-05T11:49:32;3.00;;;1.90;;
14520;SDS011;7347;50.844;4.490;2023-06-05T11:52:00;3.55;;;2.17;;
14520;SDS011;7347;50.844;4.490;2023-06-05T11:54:28;2.47;;;1.60;;
14520;SDS011;7347;50.844;4.490;2023-06-05T11:56:59;2.72;;;2.03;;
14520;SDS011;7347;50.844;4.490;2023-06-05T11:59:33;3.08;;;1.77;;
14520;SDS011;7347;50.844;4.490;2023-06-05T12:02:00;6.90;;;2.50;;
14520;SDS011;7347;50.844;4.490;2023-06-05T12:04:28;5.30;;;1.60;;
14520;SDS011;7347;50.844;4.490;2023-06-05T12:06:55;4.30;;;1.98;;
14520;SDS011;7347;50.844;4.490;2023-06-05T12:09:26;3.53;;;1.98;;
14520;SDS011;7347;50.844;4.490;2023-06-05T12:11:57;2.53;;;1.42;;
14520;SDS011;7347;50.844;4.490;2023-06-05T12:14:31;3.80;;;1.73;;
14520;SDS011;7347;50.844;4.490;2023-06-05T12:16:59;3.53;;;1.55;;
14520;SDS011;7347;50.844;4.490;2023-06-05T12:19:28;2.30;;;1.55;;
14520;SDS011;7347;50.844;4.490;2023-06-05T12:22:01;2.47;;;1.50;;
14520;SDS011;7347;50.844;4.490;2023-06-05T12:24:30;3.20;;;1.73;;
14520;SDS011;7347;50.844;4.490;2023-06-05T12:26:58;2.80;;;1.40;;
14520;SDS011;7347;50.844;4.490;2023-06-05T12:29:27;2.05;;;1.17;;
14520;SDS011;7347;50.844;4.490;2023-06-05T12:31:55;4.45;;;1.60;;
14520;SDS011;7347;50.844;4.490;2023-06-05T12:34:38;2.97;;;1.63;;
14520;SDS011;7347;50.844;4.490;2023-06-05T12:37:07;2.33;;;1.50;;
14520;SDS011;7347;50.844;4.490;2023-06-05T12:39:35;2.35;;;1.83;;
14520;SDS011;7347;50.844;4.490;2023-06-05T12:42:02;3.05;;;1.90;;
14520;SDS011;7347;50.844;4.490;2023-06-05T12:44:30;5.93;;;1.42;;
14520;SDS011;7347;50.844;4.490;2023-06-05T12:46:56;1.95;;;1.42;;
14520;SDS011;7347;50.844;4.490;2023-06-05T12:49:23;2.78;;;1.80;;
14520;SDS011;7347;50.844;4.490;2023-06-05T12:51:50;2.05;;;1.45;;
14520;SDS011;7347;50.844;4.490;2023-06-05T12:54:17;1.42;;;1.00;;
14520;SDS011;7347;50.844;4.490;2023-06-05T12:56:45;4.65;;;1.40;;
14520;SDS011;7347;50.844;4.490;2023-06-05T12:59:12;2.42;;;1.20;;
14520;SDS011;7347;50.844;4.490;2023-06-05T13:01:39;2.00;;;1.20;;
14520;SDS011;7347;50.844;4.490;2023-06-05T13:04:06;1.67;;;1.00;;
14520;SDS011;7347;50.844;4.490;2023-06-05T13:06:33;3.60;;;1.10;;
14520;SDS011;7347;50.844;4.490;2023-06-05T13:09:00;3.55;;;1.33;;
14520;SDS011;7347;50.844;4.490;2023-06-05T13:11:28;2.80;;;1.38;;
14520;SDS011;7347;50.844;4.490;2023-06-05T13:13:56;3.65;;;1.48;;
14520;SDS011;7347;50.844;4.490;2023-06-05T13:16:23;2.72;;;1.30;;
14520;SDS011;7347;50.844;4.490;2023-06-05T13:18:50;2.00;;;1.27;;
14520;SDS011;7347;50.844;4.490;2023-06-05T13:21:17;4.57;;;1.30;;
14520;SDS011;7347;50.844;4.490;2023-06-05T13:23:44;2.13;;;1.35;;
14520;SDS011;7347;50.844;4.490;2023-06-05T13:26:11;2.97;;;1.20;;
14520;SDS011;7347;50.844;4.490;2023-06-05T13:28:38;2.13;;;1.40;;
14520;SDS011;7347;50.844;4.490;2023-06-05T13:31:06;1.65;;;1.20;;
14520;SDS011;7347;50.844;4.490;2023-06-05T13:33:33;2.45;;;1.27;;
14520;SDS011;7347;50.844;4.490;2023-06-05T13:36:00;2.88;;;1.33;;
14520;SDS011;7347;50.844;4.490;2023-06-05T13:38:26;2.83;;;1.00;;
14520;SDS011;7347;50.844;4.490;2023-06-05T13:40:53;1.70;;;1.13;;
14520;SDS011;7347;50.844;4.490;2023-06-05T13:43:20;1.15;;;0.93;;
14520;SDS011;7347;50.844;4.490;2023-06-05T13:45:47;1.85;;;1.30;;
14520;SDS011;7347;50.844;4.490;2023-06-05T13:48:15;1.42;;;1.10;;
14520;SDS011;7347;50.844;4.490;2023-06-05T13:50:43;1.65;;;1.25;;
14520;SDS011;7347;50.844;4.490;2023-06-05T13:53:10;3.45;;;1.23;;
14520;SDS011;7347;50.844;4.490;2023-06-05T13:55:37;2.67;;;1.63;;
14520;SDS011;7347;50.844;4.490;2023-06-05T13:58:04;3.13;;;1.50;;
14520;SDS011;7347;50.844;4.490;2023-06-05T14:00:32;2.45;;;1.42;;
14520;SDS011;7347;50.844;4.490;2023-06-05T14:02:59;3.13;;;1.20;;
14520;SDS011;7347;50.844;4.490;2023-06-05T14:05:27;2.50;;;1.00;;
14520;SDS011;7347;50.844;4.490;2023-06-05T14:07:54;3.22;;;2.00;;
14520;SDS011;7347;50.844;4.490;2023-06-05T14:10:23;1.48;;;1.08;;
14520;SDS011;7347;50.844;4.490;2023-06-05T14:12:51;1.73;;;1.38;;
14520;SDS011;7347;50.844;4.490;2023-06-05T14:15:18;2.15;;;1.30;;
14520;SDS011;7347;50.844;4.490;2023-06-05T14:17:45;2.10;;;1.50;;
14520;SDS011;7347;50.844;4.490;2023-06-05T14:20:14;2.10;;;1.42;;
14520;SDS011;7347;50.844;4.490;2023-06-05T14:22:42;2.58;;;1.70;;
14520;SDS011;7347;50.844;4.490;2023-06-05T14:25:09;3.28;;;1.40;;
14520;SDS011;7347;50.844;4.490;2023-06-05T14:27:36;2.88;;;1.33;;
14520;SDS011;7347;50.844;4.490;2023-06-05T14:30:03;1.60;;;0.80;;
14520;SDS011;7347;50.844;4.490;2023-06-05T14:32:32;1.48;;;1.10;;
14520;SDS011;7347;50.844;4.490;2023-06-05T14:34:59;2.35;;;1.20;;
14520;SDS011;7347;50.844;4.490;2023-06-05T14:37:25;2.22;;;1.27;;
14520;SDS011;7347;50.844;4.490;2023-06-05T14:39:54;2.15;;;1.20;;
14520;SDS011;7347;50.844;4.490;2023-06-05T14:42:21;2.35;;;1.48;;
14520;SDS011;7347;50.844;4.490;2023-06-05T14:44:48;2.45;;;1.33;;
14520;SDS011;7347;50.844;4.490;2023-06-05T14:47:15;2.63;;;1.35;;
14520;SDS011;7347;50.844;4.490;2023-06-05T14:49:42;3.08;;;1.30;;
14520;SDS011;7347;50.844;4.490;2023-06-05T14:52:09;2.72;;;1.30;;
14520;SDS011;7347;50.844;4.490;2023-06-05T14:54:36;1.90;;;1.30;;
14520;SDS011;7347;50.844;4.490;2023-06-05T14:57:04;2.55;;;1.30;;
14520;SDS011;7347;50.844;4.490;2023-06-05T14:59:32;4.55;;;1.25;;
14520;SDS011;7347;50.844;4.490;2023-06-05T15:01:58;2.25;;;1.60;;
14520;SDS011;7347;50.844;4.490;2023-06-05T15:04:25;2.50;;;1.27;;
14520;SDS011;7347;50.844;4.490;2023-06-05T15:06:53;2.72;;;1.17;;
14520;SDS011;7347;50.844;4.490;2023-06-05T15:09:20;2.25;;;1.52;;
14520;SDS011;7347;50.844;4.490;2023-06-05T15:11:47;1.98;;;1.35;;
14520;SDS011;7347;50.844;4.490;2023-06-05T15:14:16;3.47;;;1.10;;
14520;SDS011;7347;50.844;4.490;2023-06-05T15:16:43;4.25;;;1.50;;
14520;SDS011;7347;50.844;4.490;2023-06-05T15:19:11;3.47;;;1.30;;
14520;SDS011;7347;50.844;4.490;2023-06-05T15:21:38;2.63;;;1.23;;
14520;SDS011;7347;50.844;4.490;2023-06-05T15:24:05;1.95;;;1.20;;
14520;SDS011;7347;50.844;4.490;2023-06-05T15:26:32;2.42;;;1.27;;
14520;SDS011;7347;50.844;4.490;2023-06-05T15:28:59;1.40;;;1.30;;
14520;SDS011;7347;50.844;4.490;2023-06-05T15:31:27;3.67;;;1.30;;
14520;SDS011;7347;50.844;4.490;2023-06-05T15:33:54;2.60;;;1.10;;
14520;SDS011;7347;50.844;4.490;2023-06-05T15:36:21;2.92;;;1.20;;
14520;SDS011;7347;50.844;4.490;2023-06-05T15:38:47;2.03;;;1.52;;
14520;SDS011;7347;50.844;4.490;2023-06-05T15:41:14;4.60;;;1.70;;
14520;SDS011;7347;50.844;4.490;2023-06-05T15:43:41;1.80;;;1.25;;
14520;SDS011;7347;50.844;4.490;2023-06-05T15:46:08;3.47;;;1.65;;
14520;SDS011;7347;50.844;4.490;2023-06-05T15:48:36;3.83;;;1.25;;
14520;SDS011;7347;50.844;4.490;2023-06-05T15:51:04;3.28;;;1.30;;
14520;SDS011;7347;50.844;4.490;2023-06-05T15:53:30;1.60;;;1.30;;
14520;SDS011;7347;50.844;4.490;2023-06-05T15:55:57;4.40;;;1.40;;
14520;SDS011;7347;50.844;4.490;2023-06-05T15:58:26;2.15;;;1.20;;
14520;SDS011;7347;50.844;4.490;2023-06-05T16:00:53;3.53;;;1.45;;
14520;SDS011;7347;50.844;4.490;2023-06-05T16:03:20;3.38;;;1.60;;
14520;SDS011;7347;50.844;4.490;2023-06-05T16:05:48;2.40;;;1.40;;
14520;SDS011;7347;50.844;4.490;2023-06-05T16:08:15;2.55;;;1.63;;
14520;SDS011;7347;50.844;4.490;2023-06-05T16:10:44;2.30;;;1.40;;
14520;SDS011;7347;50.844;4.490;2023-06-05T16:13:11;5.22;;;2.08;;
14520;SDS011;7347;50.844;4.490;2023-06-05T16:15:39;2.17;;;1.48;;
14520;SDS011;7347;50.844;4.490;2023-06-05T16:18:06;2.17;;;1.60;;
14520;SDS011;7347;50.844;4.490;2023-06-05T16:20:33;3.13;;;1.70;;
14520;SDS011;7347;50.844;4.490;2023-06-05T16:23:01;4.70;;;1.60;;
14520;SDS011;7347;50.844;4.490;2023-06-05T16:25:28;4.32;;;1.80;;
14520;SDS011;7347;50.844;4.490;2023-06-05T16:27:55;2.55;;;1.40;;
14520;SDS011;7347;50.844;4.490;2023-06-05T16:30:22;2.35;;;1.70;;
14520;SDS011;7347;50.844;4.490;2023-06-05T16:32:48;2.28;;;1.42;;
14520;SDS011;7347;50.844;4.490;2023-06-05T16:35:16;2.45;;;1.20;;
14520;SDS011;7347;50.844;4.490;2023-06-05T16:37:43;4.05;;;1.30;;
14520;SDS011;7347;50.844;4.490;2023-06-05T16:40:11;3.42;;;1.50;;
14520;SDS011;7347;50.844;4.490;2023-06-05T16:42:38;2.22;;;1.40;;
14520;SDS011;7347;50.844;4.490;2023-06-05T16:45:06;2.45;;;1.58;;
14520;SDS011;7347;50.844;4.490;2023-06-05T16:47:33;2.92;;;1.63;;
14520;SDS011;7347;50.844;4.490;2023-06-05T16:50:00;3.33;;;1.65;;
14520;SDS011;7347;50.844;4.490;2023-06-05T16:52:27;3.00;;;1.80;;
14520;SDS011;7347;50.844;4.490;2023-06-05T16:54:54;4.43;;;1.75;;
14520;SDS011;7347;50.844;4.490;2023-06-05T16:57:22;4.05;;;1.80;;
14520;SDS011;7347;50.844;4.490;2023-06-05T16:59:49;5.28;;;1.70;;
14520;SDS011;7347;50.844;4.490;2023-06-05T17:02:16;3.53;;;1.88;;
14520;SDS011;7347;50.844;4.490;2023-06-05T17:04:43;3.67;;;1.88;;
14520;SDS011;7347;50.844;4.490;2023-06-05T17:07:10;4.60;;;2.15;;
14520;SDS011;7347;50.844;4.490;2023-06-05T17:09:36;2.95;;;1.73;;
14520;SDS011;7347;50.844;4.490;2023-06-05T17:12:04;2.40;;;1.70;;
14520;SDS011;7347;50.844;4.490;2023-06-05T17:14:33;2.58;;;1.67;;
14520;SDS011;7347;50.844;4.490;2023-06-05T17:17:00;3.83;;;1.88;;
14520;SDS011;7347;50.844;4.490;2023-06-05T17:19:27;2.40;;;1.65;;
14520;SDS011;7347;50.844;4.490;2023-06-05T17:21:53;2.72;;;1.85;;
14520;SDS011;7347;50.844;4.490;2023-06-05T17:24:20;3.95;;;1.70;;
14520;SDS011;7347;50.844;4.490;2023-06-05T17:26:49;2.85;;;1.92;;
14520;SDS011;7347;50.844;4.490;2023-06-05T17:29:16;3.00;;;2.15;;
14520;SDS011;7347;50.844;4.490;2023-06-05T17:31:44;3.20;;;1.80;;
14520;SDS011;7347;50.844;4.490;2023-06-05T17:34:17;4.00;;;1.77;;
14520;SDS011;7347;50.844;4.490;2023-06-05T17:36:44;3.40;;;1.60;;
14520;SDS011;7347;50.844;4.490;2023-06-05T17:39:11;2.80;;;1.90;;
14520;SDS011;7347;50.844;4.490;2023-06-05T17:41:38;3.50;;;2.38;;
14520;SDS011;7347;50.844;4.490;2023-06-05T17:44:05;5.30;;;1.98;;
14520;SDS011;7347;50.844;4.490;2023-06-05T17:46:31;3.83;;;1.77;;
14520;SDS011;7347;50.844;4.490;2023-06-05T17:49:00;4.35;;;1.58;;
14520;SDS011;7347;50.844;4.490;2023-06-05T17:51:26;4.30;;;2.03;;
14520;SDS011;7347;50.844;4.490;2023-06-05T17:53:53;5.22;;;1.80;;
14520;SDS011;7347;50.844;4.490;2023-06-05T17:56:20;2.63;;;1.67;;
14520;SDS011;7347;50.844;4.490;2023-06-05T17:58:47;2.85;;;1.50;;
14520;SDS011;7347;50.844;4.490;2023-06-05T18:01:14;4.07;;;1.63;;
14520;SDS011;7347;50.844;4.490;2023-06-05T18:03:41;4.55;;;2.03;;
14520;SDS011;7347;50.844;4.490;2023-06-05T18:06:09;4.63;;;1.92;;
14520;SDS011;7347;50.844;4.490;2023-06-05T18:08:36;3.53;;;2.05;;
14520;SDS011;7347;50.844;4.490;2023-06-05T18:11:03;2.03;;;1.50;;
14520;SDS011;7347;50.844;4.490;2023-06-05T18:13:30;2.67;;;1.65;;
14520;SDS011;7347;50.844;4.490;2023-06-05T18:15:57;3.20;;;1.92;;
14520;SDS011;7347;50.844;4.490;2023-06-05T18:18:24;3.70;;;2.10;;
14520;SDS011;7347;50.844;4.490;2023-06-05T18:20:51;2.90;;;1.80;;
14520;SDS011;7347;50.844;4.490;2023-06-05T18:23:19;3.25;;;1.58;;
14520;SDS011;7347;50.844;4.490;2023-06-05T18:25:46;3.50;;;2.10;;
14520;SDS011;7347;50.844;4.490;2023-06-05T18:28:13;2.60;;;1.50;;
14520;SDS011;7347;50.844;4.490;2023-06-05T18:30:40;4.82;;;1.83;;
14520;SDS011;7347;50.844;4.490;2023-06-05T18:33:07;4.05;;;1.92;;
14520;SDS011;7347;50.844;4.490;2023-06-05T18:35:36;3.30;;;1.80;;
14520;SDS011;7347;50.844;4.490;2023-06-05T18:38:03;7.03;;;1.92;;
